createdAt,value
2019-05-03T00:02:44.035Z,10.64
2019-05-03T00:05:19.182Z,10.62
2019-05-03T00:07:53.829Z,10.65
2019-05-03T00:10:27.391Z,10.61
2019-05-03T00:13:01.936Z,10.54
2019-05-03T00:15:43.214Z,10.57
2019-05-03T00:18:16.700Z,10.54
2019-05-03T00:20:50.140Z,10.51
2019-05-03T00:23:23.534Z,10.53
2019-05-03T00:25:56.948Z,10.53
2019-05-03T00:28:32.078Z,10.54
2019-05-03T00:31:05.644Z,10.50
2019-05-03T00:33:39.846Z,10.48
2019-05-03T00:36:15.171Z,10.51
2019-05-03T00:38:49.398Z,10.46
2019-05-03T00:41:22.857Z,10.41
2019-05-03T00:43:56.284Z,10.41
2019-05-03T00:46:29.702Z,10.39
2019-05-03T00:49:03.813Z,10.40
2019-05-03T00:51:37.519Z,10.43
2019-05-03T00:54:12.638Z,10.37
2019-05-03T00:56:46.230Z,10.39
2019-05-03T00:59:19.651Z,10.38
2019-05-03T01:01:53.082Z,10.38
2019-05-03T01:04:26.504Z,10.37
2019-05-03T01:07:02.107Z,10.40
2019-05-03T01:09:35.611Z,10.38
2019-05-03T01:12:09.140Z,10.42
2019-05-03T01:14:44.180Z,10.42
2019-05-03T01:17:17.632Z,10.45
2019-05-03T01:19:52.132Z,10.52
2019-05-03T01:22:25.746Z,10.47
2019-05-03T01:24:59.150Z,10.49
2019-05-03T01:27:32.841Z,10.48
2019-05-03T01:30:07.436Z,10.51
2019-05-03T01:32:41.845Z,10.46
2019-05-03T01:35:15.488Z,10.45
2019-05-03T01:37:48.926Z,10.47
2019-05-03T01:40:22.343Z,10.49
2019-05-03T01:42:55.783Z,10.48
2019-05-03T01:45:29.199Z,10.42
2019-05-03T01:48:12.461Z,10.46
2019-05-03T01:50:52.063Z,10.53
2019-05-03T01:53:32.133Z,10.66
2019-05-03T01:56:05.565Z,10.67
2019-05-03T01:58:38.988Z,10.71
2019-05-03T02:01:14.153Z,10.72
2019-05-03T02:03:52.360Z,10.73
2019-05-03T02:06:25.840Z,10.78
2019-05-03T02:08:59.261Z,10.75
2019-05-03T02:11:32.706Z,10.77
2019-05-03T02:14:06.454Z,10.79
2019-05-03T02:16:41.920Z,10.74
2019-05-03T02:19:15.033Z,10.73
2019-05-03T02:21:48.443Z,10.74
2019-05-03T02:24:22.177Z,10.71
2019-05-03T02:26:55.653Z,10.73
2019-05-03T02:29:29.083Z,10.69
2019-05-03T02:32:03.302Z,10.64
2019-05-03T02:34:37.022Z,10.57
2019-05-03T02:37:13.599Z,10.52
2019-05-03T02:39:47.113Z,10.45
2019-05-03T02:42:20.524Z,10.42
2019-05-03T02:44:55.349Z,10.38
2019-05-03T02:47:30.550Z,10.36
2019-05-03T02:50:08.185Z,10.42
2019-05-03T02:52:41.576Z,10.30
2019-05-03T02:55:16.257Z,10.24
2019-05-03T02:57:49.910Z,10.22
2019-05-03T03:00:26.378Z,10.16
2019-05-03T03:02:59.866Z,10.12
2019-05-03T03:05:35.269Z,10.09
2019-05-03T03:08:09.363Z,10.09
2019-05-03T03:10:45.491Z,10.01
2019-05-03T03:13:21.919Z,10.07
2019-05-03T03:15:57.590Z,10.05
2019-05-03T03:18:36.408Z,9.98
2019-05-03T03:21:15.710Z,9.94
2019-05-03T03:24:06.789Z,9.92
2019-05-03T03:26:43.308Z,9.91
2019-05-03T03:29:17.923Z,9.95
2019-05-03T03:32:00.333Z,9.95
2019-05-03T03:34:38.694Z,9.92
2019-05-03T03:37:15.344Z,9.91
2019-05-03T03:39:47.759Z,9.91
2019-05-03T03:42:25.014Z,9.89
2019-05-03T03:44:57.920Z,9.81
2019-05-03T03:47:35.869Z,9.83
2019-05-03T03:50:10.318Z,9.85
2019-05-03T03:52:45.320Z,9.79
2019-05-03T03:55:18.776Z,9.75
2019-05-03T03:57:55.725Z,9.77
2019-05-03T04:00:28.678Z,9.82
2019-05-03T04:03:05.874Z,9.77
2019-05-03T04:05:38.690Z,9.76
2019-05-03T04:08:12.180Z,9.83
2019-05-03T04:10:46.312Z,9.76
2019-05-03T04:13:21.727Z,9.65
2019-05-03T04:15:57.202Z,9.66
2019-05-03T04:18:33.125Z,9.61
2019-05-03T04:21:07.275Z,9.65
2019-05-03T04:23:41.334Z,9.59
2019-05-03T04:26:16.348Z,9.58
2019-05-03T04:28:50.164Z,9.56
2019-05-03T04:31:26.248Z,9.62
2019-05-03T04:33:58.708Z,9.49
2019-05-03T04:36:32.122Z,9.45
2019-05-03T04:39:07.088Z,9.38
2019-05-03T04:41:40.514Z,9.43
2019-05-03T04:44:15.509Z,9.38
2019-05-03T04:46:49.054Z,9.34
2019-05-03T04:49:22.471Z,9.28
2019-05-03T04:51:56.112Z,9.26
2019-05-03T04:54:35.570Z,9.15
2019-05-03T04:57:09.150Z,9.70
2019-05-03T04:59:44.985Z,9.82
2019-05-03T05:02:17.721Z,10.03
2019-05-03T05:04:51.207Z,10.01
2019-05-03T05:07:26.139Z,9.75
2019-05-03T05:09:59.880Z,9.25
2019-05-03T05:12:35.517Z,9.61
2019-05-03T05:15:08.510Z,9.50
2019-05-03T05:17:46.147Z,9.23
2019-05-03T05:20:30.472Z,9.16
2019-05-03T05:23:04.608Z,9.18
2019-05-03T05:25:55.062Z,9.33
2019-05-03T05:28:39.181Z,9.46
2019-05-03T05:31:12.714Z,9.39
2019-05-03T05:33:46.110Z,9.46
2019-05-03T05:36:19.545Z,9.70
2019-05-03T05:38:55.134Z,9.61
2019-05-03T05:41:28.197Z,9.44
2019-05-03T05:44:01.609Z,9.40
2019-05-03T05:46:36.690Z,9.66
2019-05-03T05:49:11.727Z,9.86
2019-05-03T05:51:45.163Z,9.99
2019-05-03T05:54:18.578Z,10.01
2019-05-03T05:56:54.704Z,10.35
2019-05-03T05:59:30.013Z,10.61
2019-05-03T06:02:05.188Z,11.62
2019-05-03T06:04:38.609Z,10.97
2019-05-03T06:07:28.358Z,10.72
2019-05-03T06:10:06.398Z,10.69
2019-05-03T06:12:50.706Z,10.12
2019-05-03T06:15:34.597Z,10.15
2019-05-03T06:18:09.589Z,10.22
2019-05-03T06:20:47.653Z,10.94
2019-05-03T06:23:25.417Z,10.65
2019-05-03T06:25:59.531Z,11.08
2019-05-03T06:28:35.283Z,11.08
2019-05-03T06:31:10.527Z,10.61
2019-05-03T06:33:45.034Z,11.05
2019-05-03T06:36:18.579Z,11.24
2019-05-03T06:38:52.021Z,11.21
2019-05-03T06:41:25.453Z,11.88
2019-05-03T06:43:58.870Z,11.80
2019-05-03T06:46:46.089Z,13.55
2019-05-03T06:49:19.487Z,12.23
2019-05-03T06:51:54.634Z,12.49
2019-05-03T06:54:29.984Z,13.31
2019-05-03T06:57:05.730Z,12.58
2019-05-03T06:59:42.720Z,12.46
2019-05-03T07:02:25.180Z,12.27
2019-05-03T07:05:00.334Z,13.07
2019-05-03T07:07:41.387Z,14.97
2019-05-03T07:10:25.369Z,14.02
2019-05-03T07:13:00.569Z,13.34
2019-05-03T07:15:35.108Z,14.23
2019-05-03T07:18:08.662Z,14.63
2019-05-03T07:20:44.566Z,14.48
2019-05-03T07:23:18.009Z,13.53
2019-05-03T07:25:51.422Z,14.60
2019-05-03T07:28:24.965Z,12.87
2019-05-03T07:30:58.348Z,12.22
2019-05-03T07:33:34.867Z,12.06
2019-05-03T07:36:08.420Z,11.45
2019-05-03T07:38:41.863Z,11.27
2019-05-03T07:41:15.271Z,11.33
2019-05-03T07:43:48.709Z,11.15
2019-05-03T07:46:22.205Z,11.24
2019-05-03T07:48:55.640Z,11.27
2019-05-03T07:51:29.050Z,11.37
2019-05-03T07:54:04.533Z,11.18
2019-05-03T07:56:39.303Z,11.60
2019-05-03T07:59:14.897Z,11.44
2019-05-03T08:01:54.527Z,12.08
2019-05-03T08:04:27.437Z,11.91
2019-05-03T08:07:00.865Z,12.18
2019-05-03T08:09:35.063Z,11.86
2019-05-03T08:12:08.596Z,11.83
2019-05-03T08:14:42.048Z,11.83
2019-05-03T08:17:15.484Z,11.88
2019-05-03T08:19:48.950Z,11.75
2019-05-03T08:22:22.357Z,11.58
2019-05-03T08:24:55.799Z,11.92
2019-05-03T08:27:29.206Z,11.58
2019-05-03T08:30:04.674Z,11.72
2019-05-03T08:32:57.842Z,11.42
2019-05-03T08:35:32.903Z,11.39
2019-05-03T08:38:06.492Z,11.77
2019-05-03T08:40:41.651Z,11.53
2019-05-03T08:43:15.599Z,11.45
2019-05-03T08:45:49.125Z,12.09
2019-05-03T08:48:24.818Z,12.44
2019-05-03T08:50:57.746Z,12.28
2019-05-03T08:53:31.172Z,12.63
2019-05-03T08:56:05.253Z,12.81
2019-05-03T08:58:38.781Z,12.38
2019-05-03T09:01:14.623Z,11.98
2019-05-03T09:03:47.339Z,12.73
2019-05-03T09:06:20.762Z,12.64
2019-05-03T09:08:57.136Z,13.04
2019-05-03T09:11:34.007Z,12.95
2019-05-03T09:14:06.227Z,12.47
2019-05-03T09:16:39.666Z,12.40
2019-05-03T09:19:14.759Z,12.54
2019-05-03T09:21:48.317Z,12.46
2019-05-03T09:24:21.741Z,12.29
2019-05-03T09:26:55.652Z,12.34
2019-05-03T09:29:40.228Z,13.02
2019-05-03T09:32:05.152Z,13.60
2019-05-03T09:34:38.743Z,13.22
2019-05-03T09:37:12.180Z,13.29
2019-05-03T09:39:45.597Z,13.49
2019-05-03T09:42:19.039Z,14.14
2019-05-03T09:44:52.671Z,14.40
2019-05-03T09:47:26.017Z,13.86
2019-05-03T09:50:02.007Z,13.61
2019-05-03T09:52:35.514Z,14.20
2019-05-03T09:55:10.962Z,13.93
2019-05-03T09:57:44.546Z,14.12
2019-05-03T10:00:18.486Z,13.45
2019-05-03T10:02:51.926Z,13.25
2019-05-03T10:05:25.677Z,13.87
2019-05-03T10:07:59.312Z,13.98
2019-05-03T10:10:35.686Z,14.32
2019-05-03T10:13:14.892Z,14.35
2019-05-03T10:15:45.115Z,13.98
2019-05-03T10:18:18.770Z,14.00
2019-05-03T10:20:52.253Z,14.00
2019-05-03T10:23:36.039Z,13.54
2019-05-03T10:26:10.090Z,14.00
2019-05-03T10:28:43.588Z,14.28
2019-05-03T10:31:17.493Z,14.30
2019-05-03T10:33:52.560Z,14.04
2019-05-03T10:36:26.063Z,13.61
2019-05-03T10:38:59.556Z,14.59
2019-05-03T10:41:34.774Z,14.19
2019-05-03T10:44:08.416Z,14.40
2019-05-03T10:46:41.844Z,14.40
2019-05-03T10:49:15.486Z,14.56
2019-05-03T10:51:50.670Z,14.56
2019-05-03T10:54:24.087Z,14.67
2019-05-03T10:56:59.120Z,14.74
2019-05-03T10:59:32.572Z,14.92
2019-05-03T11:02:25.330Z,14.00
2019-05-03T11:04:58.988Z,14.33
2019-05-03T11:07:34.454Z,14.71
2019-05-03T11:10:08.201Z,15.62
2019-05-03T11:12:41.661Z,15.53
2019-05-03T11:15:15.699Z,15.89
2019-05-03T11:17:49.164Z,14.94
2019-05-03T11:20:36.663Z,14.70
2019-05-03T11:23:10.129Z,14.70
2019-05-03T11:25:45.253Z,14.81
2019-05-03T11:28:20.466Z,15.26
2019-05-03T11:31:01.369Z,15.26
2019-05-03T11:33:36.508Z,14.60
2019-05-03T11:36:26.343Z,14.54
2019-05-03T11:38:59.741Z,14.54
2019-05-03T11:41:35.817Z,14.74
2019-05-03T11:44:27.384Z,15.17
2019-05-03T11:47:00.803Z,14.89
2019-05-03T11:49:34.834Z,15.35
2019-05-03T11:52:08.450Z,15.12
2019-05-03T11:54:41.856Z,15.16
2019-05-03T11:57:16.927Z,15.47
2019-05-03T11:59:50.340Z,15.72
2019-05-03T12:02:31.180Z,15.22
2019-05-03T12:05:10.961Z,15.40
2019-05-03T12:07:45.542Z,16.34
2019-05-03T12:10:32.661Z,16.22
2019-05-03T12:12:57.240Z,14.79
2019-05-03T12:15:30.654Z,15.30
2019-05-03T12:18:06.802Z,14.74
2019-05-03T12:20:41.622Z,14.84
2019-05-03T12:23:16.808Z,14.51
2019-05-03T12:25:51.117Z,14.76
2019-05-03T12:28:25.727Z,14.58
2019-05-03T12:30:59.228Z,14.88
2019-05-03T12:33:35.144Z,15.18
2019-05-03T12:36:07.902Z,15.15
2019-05-03T12:38:41.424Z,14.64
2019-05-03T12:41:15.108Z,14.68
2019-05-03T12:43:48.659Z,14.92
2019-05-03T12:46:22.089Z,14.83
2019-05-03T12:48:55.546Z,15.13
2019-05-03T12:51:28.965Z,15.55
2019-05-03T12:54:04.710Z,15.19
2019-05-03T12:56:37.546Z,15.99
2019-05-03T12:59:28.836Z,14.85
2019-05-03T13:02:06.890Z,14.81
2019-05-03T13:04:41.990Z,15.59
2019-05-03T13:07:20.077Z,14.89
2019-05-03T13:09:54.475Z,14.77
2019-05-03T13:12:29.631Z,14.49
2019-05-03T13:15:05.063Z,14.61
2019-05-03T13:17:38.513Z,14.61
2019-05-03T13:20:15.682Z,14.83
2019-05-03T13:22:49.088Z,14.83
2019-05-03T13:25:22.520Z,14.86
2019-05-03T13:27:55.925Z,14.90
2019-05-03T13:30:29.347Z,14.84
2019-05-03T13:33:02.730Z,15.37
2019-05-03T13:35:36.172Z,15.09
2019-05-03T13:38:09.569Z,15.45
2019-05-03T13:40:45.188Z,15.02
2019-05-03T13:43:18.272Z,14.67
2019-05-03T13:45:51.697Z,15.41
2019-05-03T13:48:26.278Z,15.04
2019-05-03T13:51:00.107Z,14.58
2019-05-03T13:53:34.889Z,14.86
2019-05-03T13:56:08.515Z,14.73
2019-05-03T13:58:42.035Z,15.32
2019-05-03T14:01:15.518Z,15.68
2019-05-03T14:03:48.999Z,15.80
2019-05-03T14:06:24.149Z,15.80
2019-05-03T14:08:57.570Z,15.02
2019-05-03T14:11:30.992Z,15.02
2019-05-03T14:14:04.809Z,14.50
2019-05-03T14:16:38.409Z,14.29
2019-05-03T14:19:16.359Z,14.45
2019-05-03T14:21:54.722Z,14.46
2019-05-03T14:24:28.226Z,13.99
2019-05-03T14:27:01.653Z,13.79
2019-05-03T14:29:35.052Z,13.93
2019-05-03T14:32:08.485Z,13.97
2019-05-03T14:34:41.941Z,14.16
2019-05-03T14:37:15.354Z,14.48
2019-05-03T14:39:48.813Z,14.63
2019-05-03T14:42:22.312Z,14.76
2019-05-03T14:44:55.719Z,14.74
2019-05-03T14:47:29.304Z,14.66
2019-05-03T14:50:05.240Z,14.52
2019-05-03T14:52:38.100Z,14.30
2019-05-03T14:55:16.335Z,14.43
2019-05-03T14:57:55.277Z,14.50
2019-05-03T15:00:36.367Z,14.33
2019-05-03T15:03:11.441Z,14.49
2019-05-03T15:05:44.951Z,14.56
2019-05-03T15:08:18.354Z,14.64
2019-05-03T15:10:51.909Z,14.59
2019-05-03T15:13:25.437Z,14.05
2019-05-03T15:15:58.832Z,14.22
2019-05-03T15:18:32.316Z,14.17
2019-05-03T15:21:05.807Z,14.30
2019-05-03T15:23:39.265Z,14.39
2019-05-03T15:26:12.662Z,13.83
2019-05-03T15:28:46.108Z,14.10
2019-05-03T15:31:19.496Z,14.28
2019-05-03T15:33:55.387Z,14.19
2019-05-03T15:36:28.188Z,14.28
2019-05-03T15:39:01.622Z,13.97
2019-05-03T15:41:36.477Z,14.00
2019-05-03T15:44:11.634Z,14.11
2019-05-03T15:46:52.175Z,14.36
2019-05-03T15:49:27.691Z,14.24
2019-05-03T15:52:00.814Z,13.93
2019-05-03T15:54:35.307Z,14.10
2019-05-03T15:57:09.815Z,14.16
2019-05-03T15:59:44.502Z,14.23
2019-05-03T16:02:17.962Z,14.15
2019-05-03T16:04:51.406Z,14.03
2019-05-03T16:07:25.076Z,14.07
2019-05-03T16:09:58.629Z,14.14
2019-05-03T16:12:32.059Z,14.00
2019-05-03T16:15:07.316Z,14.15
2019-05-03T16:17:40.727Z,14.04
2019-05-03T16:20:14.449Z,14.02
2019-05-03T16:22:47.946Z,14.05
2019-05-03T16:25:21.764Z,14.02
2019-05-03T16:28:02.366Z,14.21
2019-05-03T16:30:40.359Z,14.04
2019-05-03T16:33:26.652Z,13.93
2019-05-03T16:35:49.047Z,14.02
2019-05-03T16:38:24.669Z,14.00
2019-05-03T16:40:57.649Z,13.95
2019-05-03T16:43:31.344Z,14.06
2019-05-03T16:46:05.620Z,13.94
2019-05-03T16:48:39.365Z,14.03
2019-05-03T16:51:15.088Z,14.07
2019-05-03T16:53:47.996Z,13.81
2019-05-03T16:56:24.358Z,13.93
2019-05-03T16:58:57.556Z,13.80
2019-05-03T17:01:30.980Z,13.92
2019-05-03T17:04:22.696Z,13.87
2019-05-03T17:07:05.472Z,13.79
2019-05-03T17:09:46.344Z,13.78
2019-05-03T17:12:21.458Z,13.76
2019-05-03T17:14:57.022Z,13.78
2019-05-03T17:17:30.669Z,13.81
2019-05-03T17:20:06.412Z,13.84
2019-05-03T17:22:39.837Z,13.79
2019-05-03T17:25:15.002Z,13.92
2019-05-03T17:27:48.507Z,13.81
2019-05-03T17:30:22.075Z,13.79
2019-05-03T17:32:55.552Z,13.85
2019-05-03T17:35:28.988Z,13.85
2019-05-03T17:38:02.891Z,13.81
2019-05-03T17:40:37.966Z,13.81
2019-05-03T17:43:15.524Z,13.80
2019-05-03T17:45:54.883Z,13.72
2019-05-03T17:48:28.340Z,13.71
2019-05-03T17:51:01.733Z,13.72
2019-05-03T17:53:39.529Z,13.78
2019-05-03T17:56:17.258Z,13.67
2019-05-03T17:58:52.389Z,13.50
2019-05-03T18:01:44.605Z,13.45
2019-05-03T18:04:31.406Z,13.36
2019-05-03T18:07:06.651Z,13.33
2019-05-03T18:09:41.711Z,13.30
2019-05-03T18:12:15.172Z,13.19
2019-05-03T18:14:48.539Z,13.17
2019-05-03T18:17:22.003Z,13.20
2019-05-03T18:19:55.529Z,13.17
2019-05-03T18:22:28.977Z,13.17
2019-05-03T18:25:02.472Z,13.10
2019-05-03T18:27:35.903Z,13.09
2019-05-03T18:30:09.485Z,13.04
2019-05-03T18:32:42.966Z,13.01
2019-05-03T18:35:16.480Z,12.99
2019-05-03T18:37:58.738Z,12.94
2019-05-03T18:40:35.297Z,12.92
2019-05-03T18:43:16.026Z,12.89
2019-05-03T18:45:54.566Z,12.86
2019-05-03T18:48:28.154Z,12.77
2019-05-03T18:51:01.630Z,12.77
2019-05-03T18:53:35.059Z,12.80
2019-05-03T18:56:08.549Z,12.79
2019-05-03T18:58:42.012Z,12.82
2019-05-03T19:01:15.571Z,12.70
2019-05-03T19:03:50.645Z,12.60
2019-05-03T19:06:24.200Z,12.63
2019-05-03T19:09:05.445Z,12.63
2019-05-03T19:11:56.529Z,12.63
2019-05-03T19:14:29.943Z,12.63
2019-05-03T19:17:08.097Z,12.60
2019-05-03T19:19:44.667Z,12.61
2019-05-03T19:22:18.221Z,12.57
2019-05-03T19:24:51.807Z,12.56
2019-05-03T19:27:25.304Z,12.52
2019-05-03T19:29:58.734Z,12.49
2019-05-03T19:32:32.214Z,12.41
2019-05-03T19:35:08.101Z,12.41
2019-05-03T19:37:41.710Z,12.36
2019-05-03T19:40:15.403Z,12.37
2019-05-03T19:42:48.949Z,12.28
2019-05-03T19:45:24.672Z,12.27
2019-05-03T19:47:57.657Z,12.30
2019-05-03T19:50:31.080Z,12.19
2019-05-03T19:53:14.366Z,12.19
2019-05-03T19:55:50.521Z,12.13
2019-05-03T19:58:24.758Z,12.07
2019-05-03T20:01:15.968Z,12.12
2019-05-03T20:03:51.029Z,12.15
2019-05-03T20:06:31.955Z,12.18
2019-05-03T20:09:11.573Z,12.09
2019-05-03T20:11:46.046Z,12.06
2019-05-03T20:14:19.494Z,12.08
2019-05-03T20:16:54.875Z,12.03
2019-05-03T20:19:28.077Z,12.02
2019-05-03T20:22:01.501Z,12.01
2019-05-03T20:24:35.011Z,11.98
2019-05-03T20:27:08.473Z,11.98
2019-05-03T20:29:46.370Z,11.89
2019-05-03T20:32:19.742Z,11.90
2019-05-03T20:34:55.014Z,11.93
2019-05-03T20:37:28.402Z,11.84
2019-05-03T20:40:02.659Z,11.87
2019-05-03T20:42:55.844Z,11.88
2019-05-03T20:45:36.946Z,11.86
2019-05-03T20:48:12.108Z,11.80
2019-05-03T20:50:45.529Z,11.83
2019-05-03T20:53:18.999Z,11.78
2019-05-03T20:55:54.174Z,11.76
2019-05-03T20:58:27.697Z,11.79
2019-05-03T21:01:01.195Z,11.77
2019-05-03T21:03:34.615Z,11.69
2019-05-03T21:06:08.096Z,11.69
2019-05-03T21:08:52.292Z,11.67
2019-05-03T21:11:16.697Z,11.57
2019-05-03T21:13:50.274Z,11.51
2019-05-03T21:16:37.240Z,11.45
2019-05-03T21:19:13.977Z,11.37
2019-05-03T21:21:49.176Z,11.30
2019-05-03T21:24:26.211Z,11.22
2019-05-03T21:26:59.370Z,11.08
2019-05-03T21:29:34.612Z,11.04
2019-05-03T21:32:08.014Z,11.08
2019-05-03T21:34:41.456Z,11.14
2019-05-03T21:37:15.199Z,11.17
2019-05-03T21:39:48.580Z,11.18
2019-05-03T21:42:22.005Z,11.28
2019-05-03T21:44:55.630Z,11.26
2019-05-03T21:47:42.568Z,11.33
2019-05-03T21:50:17.945Z,11.25
2019-05-03T21:52:51.355Z,11.19
2019-05-03T21:55:24.846Z,11.13
2019-05-03T21:57:58.207Z,11.15
2019-05-03T22:00:42.673Z,10.98
2019-05-03T22:03:16.400Z,10.84
2019-05-03T22:05:54.911Z,10.78
2019-05-03T22:08:25.026Z,10.72
2019-05-03T22:10:58.662Z,10.63
2019-05-03T22:13:32.043Z,10.56
2019-05-03T22:16:15.886Z,10.52
2019-05-03T22:18:49.285Z,10.49
2019-05-03T22:21:39.506Z,10.46
2019-05-03T22:24:16.967Z,10.34
2019-05-03T22:27:01.217Z,10.32
2019-05-03T22:29:35.598Z,10.22
2019-05-03T22:32:09.360Z,10.17
2019-05-03T22:34:43.465Z,10.17
2019-05-03T22:37:16.912Z,10.16
2019-05-03T22:39:50.342Z,10.15
2019-05-03T22:42:25.290Z,10.15
2019-05-03T22:44:58.961Z,10.19
2019-05-03T22:47:32.396Z,10.17
2019-05-03T22:50:06.718Z,10.19
2019-05-03T22:52:40.140Z,10.10
2019-05-03T22:55:15.318Z,10.04
2019-05-03T22:57:48.715Z,10.00
2019-05-03T23:00:22.177Z,9.93
2019-05-03T23:02:55.610Z,9.90
2019-05-03T23:05:29.018Z,9.87
2019-05-03T23:08:02.443Z,9.86
2019-05-03T23:10:35.843Z,9.90
2019-05-03T23:13:09.259Z,9.93
2019-05-03T23:15:42.680Z,9.94
2019-05-03T23:18:16.115Z,9.92
2019-05-03T23:21:00.061Z,9.93
2019-05-03T23:23:49.905Z,9.98
2019-05-03T23:26:25.259Z,10.01
2019-05-03T23:28:58.483Z,10.08
2019-05-03T23:31:34.365Z,10.10
2019-05-03T23:34:07.958Z,10.09
2019-05-03T23:36:41.382Z,10.09
2019-05-03T23:39:14.808Z,10.06
2019-05-03T23:41:48.204Z,10.10
2019-05-03T23:44:21.615Z,10.03
2019-05-03T23:46:59.126Z,10.01
2019-05-03T23:49:32.553Z,10.08
2019-05-03T23:52:07.664Z,10.07
2019-05-03T23:54:41.119Z,10.08
2019-05-03T23:57:14.519Z,10.07
2019-05-03T23:59:47.942Z,10.07
